Airfield :
LOGIN :

Register | Disclaimer

   EN    FR    IT 

 










Legend :    VFR   Marginal VFR   IFR   Intensive IFR   Very Intensive IFR
Visi :
Ceiling :
>= 8 km
>= 3000ft
5 to 8 km
1000 to 3000 ft
1500m to 5 km
500 to 1000 ft
800 to 1500m
200 to 500 ft
< 800m
< 200 ft
Symbols :   Thunderstorms  Fog  Heavy snow  Heavy precipitations  Wind > 20 kt
SIGMETs :     Misc.  Thunderstorms  Icing  Turbulence  Mountain Waves  Volcanic Ashes






- Airport Elevation : 2220 ft


LOXZ - Zeltweg AB

CURRENT METAR :
  • 190950Z VRB02KT 30KM FEW070CU SCT300CI 26/18 Q1018 NOSIG

EXPIRED METARs :
  • 190920Z VRB02KT 30KM FEW070CU 25/18 Q1018 NOSIG
  • 190850Z VRB02KT 30KM FEW060CU 23/18 Q1018 NOSIG
  • 190820Z VRB01KT 30KM FEW060CU 22/18 Q1018 NOSIG
  • 190750Z VRB02KT 30KM FEW050CU 21/17 Q1019 NOSIG
  • 190720Z VRB01KT 20KM FEW005ST 20/16 Q1019 NOSIG

TAF TAF LOXZ
Valid from the 19 at 09:00 until the 19 at 18:00 UTC


190815Z 1909/1918 VRB03KT 9999 FEW060
TEMPO 1910/1915 12012KT FEW060CB SCT300
PROB40
TEMPO 1912/1915 VRB15G25KT TSRA SCT060 FEW050CB



MET'MAP, your aeronautical weather chart ! - Copyright ORBIFLY December 2007 - Disclaimer

ORBIFLY MET'MAP TEAM :

Programming & Development : Alexandra Zaïnal
Concept & original design : Baudouin d'Aumeries
Assistance for programming : Marc-Olivier Méhu
Technical & hardware support : Manuel Goepfert

Contact : metmap@orbifly.com




SOURCES & CREDITS :

   NOAA